sensor_id;sensor_type;location;lat;lon;timestamp;pressure;altitude;pressure_sealevel;temperature;humidity
69622;BME280;56841;55.964;37.674;2023-02-20T00:00:42;97490.84;;;-5.25;77.01
69622;BME280;56841;55.964;37.674;2023-02-20T00:03:08;97494.34;;;-5.26;76.60
69622;BME280;56841;55.964;37.674;2023-02-20T00:05:34;97493.44;;;-5.48;77.19
69622;BME280;56841;55.964;37.674;2023-02-20T00:08:00;97501.66;;;-5.54;78.09
69622;BME280;56841;55.964;37.674;2023-02-20T00:10:26;97497.03;;;-5.28;77.71
69622;BME280;56841;55.964;37.674;2023-02-20T00:12:52;97501.59;;;-5.31;77.22
69622;BME280;56841;55.964;37.674;2023-02-20T00:15:18;97495.63;;;-5.32;77.42
69622;BME280;56841;55.964;37.674;2023-02-20T00:17:44;97497.88;;;-5.38;77.27
69622;BME280;56841;55.964;37.674;2023-02-20T00:20:14;97495.09;;;-5.46;77.43
69622;BME280;56841;55.964;37.674;2023-02-20T00:22:40;97497.75;;;-5.48;77.68
69622;BME280;56841;55.964;37.674;2023-02-20T00:25:06;97494.97;;;-5.45;77.19
69622;BME280;56841;55.964;37.674;2023-02-20T00:27:32;97495.31;;;-5.38;77.21
69622;BME280;56841;55.964;37.674;2023-02-20T00:29:58;97492.72;;;-5.38;76.90
69622;BME280;56841;55.964;37.674;2023-02-20T00:32:23;97494.16;;;-5.45;77.35
69622;BME280;56841;55.964;37.674;2023-02-20T00:34:49;97496.84;;;-5.58;77.65
69622;BME280;56841;55.964;37.674;2023-02-20T00:37:15;97489.81;;;-5.45;77.53
69622;BME280;56841;55.964;37.674;2023-02-20T00:39:41;97488.09;;;-5.56;77.22
69622;BME280;56841;55.964;37.674;2023-02-20T00:42:07;97487.94;;;-5.54;77.68
69622;BME280;56841;55.964;37.674;2023-02-20T00:44:32;97489.38;;;-5.61;77.34
69622;BME280;56841;55.964;37.674;2023-02-20T00:46:58;97487.84;;;-5.53;77.29
69622;BME280;56841;55.964;37.674;2023-02-20T00:49:24;97487.97;;;-5.65;77.42
69622;BME280;56841;55.964;37.674;2023-02-20T00:51:50;97489.03;;;-5.57;77.13
69622;BME280;56841;55.964;37.674;2023-02-20T00:54:16;97484.47;;;-5.53;77.18
69622;BME280;56841;55.964;37.674;2023-02-20T00:56:42;97479.66;;;-5.58;76.99
69622;BME280;56841;55.964;37.674;2023-02-20T00:59:07;97484.88;;;-5.37;76.69
69622;BME280;56841;55.964;37.674;2023-02-20T01:01:33;97488.44;;;-5.49;76.10
69622;BME280;56841;55.964;37.674;2023-02-20T01:03:59;97491.22;;;-5.41;76.62
69622;BME280;56841;55.964;37.674;2023-02-20T01:06:25;97487.47;;;-5.48;76.10
69622;BME280;56841;55.964;37.674;2023-02-20T01:08:51;97493.91;;;-5.42;76.49
69622;BME280;56841;55.964;37.674;2023-02-20T01:11:19;97494.00;;;-5.44;76.60
69622;BME280;56841;55.964;37.674;2023-02-20T01:13:45;97486.81;;;-5.50;76.67
69622;BME280;56841;55.964;37.674;2023-02-20T01:16:11;97486.09;;;-5.52;76.81
69622;BME280;56841;55.964;37.674;2023-02-20T01:18:37;97491.25;;;-5.75;77.47
69622;BME280;56841;55.964;37.674;2023-02-20T01:21:03;97487.88;;;-5.86;77.76
69622;BME280;56841;55.964;37.674;2023-02-20T01:23:29;97482.63;;;-5.74;77.55
69622;BME280;56841;55.964;37.674;2023-02-20T01:25:54;97492.31;;;-5.66;77.54
69622;BME280;56841;55.964;37.674;2023-02-20T01:28:20;97496.41;;;-5.63;77.04
69622;BME280;56841;55.964;37.674;2023-02-20T01:30:46;97503.28;;;-5.64;76.81
69622;BME280;56841;55.964;37.674;2023-02-20T01:33:12;97501.88;;;-5.57;76.79
69622;BME280;56841;55.964;37.674;2023-02-20T01:35:37;97498.72;;;-5.49;76.46
69622;BME280;56841;55.964;37.674;2023-02-20T01:38:03;97504.91;;;-5.63;76.82
69622;BME280;56841;55.964;37.674;2023-02-20T01:40:33;97507.75;;;-5.77;77.09
69622;BME280;56841;55.964;37.674;2023-02-20T01:43:01;97496.88;;;-5.69;77.59
69622;BME280;56841;55.964;37.674;2023-02-20T01:45:44;97510.28;;;-5.66;77.15
69622;BME280;56841;55.964;37.674;2023-02-20T01:48:23;97504.34;;;-5.66;77.03
69622;BME280;56841;55.964;37.674;2023-02-20T01:50:57;97508.66;;;-5.67;76.87
69622;BME280;56841;55.964;37.674;2023-02-20T01:53:27;97507.97;;;-5.80;76.84
69622;BME280;56841;55.964;37.674;2023-02-20T01:56:02;97499.19;;;-5.89;77.34
69622;BME280;56841;55.964;37.674;2023-02-20T01:58:41;97502.38;;;-5.74;77.40
69622;BME280;56841;55.964;37.674;2023-02-20T02:01:10;97500.59;;;-5.85;76.92
69622;BME280;56841;55.964;37.674;2023-02-20T02:03:41;97507.63;;;-5.87;77.17
69622;BME280;56841;55.964;37.674;2023-02-20T02:06:11;97504.59;;;-5.81;77.22
69622;BME280;56841;55.964;37.674;2023-02-20T02:08:38;97509.38;;;-5.76;77.12
69622;BME280;56841;55.964;37.674;2023-02-20T02:11:14;97512.28;;;-5.81;77.17
69622;BME280;56841;55.964;37.674;2023-02-20T02:13:41;97514.84;;;-5.69;76.69
69622;BME280;56841;55.964;37.674;2023-02-20T02:16:45;97519.66;;;-5.76;76.41
69622;BME280;56841;55.964;37.674;2023-02-20T02:38:32;97526.19;;;-5.83;76.21
69622;BME280;56841;55.964;37.674;2023-02-20T02:41:10;97532.00;;;-5.81;76.48
69622;BME280;56841;55.964;37.674;2023-02-20T02:46:39;97533.56;;;-5.67;76.05
69622;BME280;56841;55.964;37.674;2023-02-20T02:51:41;97535.88;;;-5.87;76.25
69622;BME280;56841;55.964;37.674;2023-02-20T02:54:20;97537.88;;;-5.90;76.66
69622;BME280;56841;55.964;37.674;2023-02-20T02:56:51;97535.41;;;-5.92;76.92
69622;BME280;56841;55.964;37.674;2023-02-20T02:59:24;97536.00;;;-5.88;76.64
69622;BME280;56841;55.964;37.674;2023-02-20T03:01:58;97542.56;;;-5.73;76.36
69622;BME280;56841;55.964;37.674;2023-02-20T03:04:27;97542.91;;;-6.00;77.20
69622;BME280;56841;55.964;37.674;2023-02-20T03:06:58;97542.09;;;-6.01;77.22
69622;BME280;56841;55.964;37.674;2023-02-20T03:09:33;97542.53;;;-6.18;77.89
69622;BME280;56841;55.964;37.674;2023-02-20T03:12:02;97540.44;;;-5.90;77.35
69622;BME280;56841;55.964;37.674;2023-02-20T03:14:39;97545.94;;;-5.84;76.43
69622;BME280;56841;55.964;37.674;2023-02-20T03:17:38;97540.22;;;-5.87;76.51
69622;BME280;56841;55.964;37.674;2023-02-20T03:20:12;97541.50;;;-6.04;77.24
69622;BME280;56841;55.964;37.674;2023-02-20T03:22:52;97541.03;;;-6.09;77.02
69622;BME280;56841;55.964;37.674;2023-02-20T03:30:45;97551.44;;;-6.00;77.31
69622;BME280;56841;55.964;37.674;2023-02-20T03:33:16;97541.84;;;-5.75;76.87
69622;BME280;56841;55.964;37.674;2023-02-20T03:36:05;97544.31;;;-5.74;76.04
69622;BME280;56841;55.964;37.674;2023-02-20T03:39:05;97543.47;;;-5.85;76.17
69622;BME280;56841;55.964;37.674;2023-02-20T03:41:52;97553.88;;;-6.09;76.80
69622;BME280;56841;55.964;37.674;2023-02-20T03:44:43;97557.03;;;-6.06;77.27
69622;BME280;56841;55.964;37.674;2023-02-20T03:47:13;97558.56;;;-6.03;77.00
69622;BME280;56841;55.964;37.674;2023-02-20T03:49:42;97559.13;;;-6.11;76.98
69622;BME280;56841;55.964;37.674;2023-02-20T03:52:12;97560.09;;;-6.01;76.79
69622;BME280;56841;55.964;37.674;2023-02-20T03:54:39;97563.09;;;-6.07;77.45
69622;BME280;56841;55.964;37.674;2023-02-20T03:57:11;97555.75;;;-6.11;77.05
69622;BME280;56841;55.964;37.674;2023-02-20T03:59:52;97552.25;;;-5.99;77.06
69622;BME280;56841;55.964;37.674;2023-02-20T04:02:22;97547.59;;;-5.94;76.75
69622;BME280;56841;55.964;37.674;2023-02-20T04:04:52;97550.13;;;-6.16;77.28
69622;BME280;56841;55.964;37.674;2023-02-20T04:07:24;97547.09;;;-6.22;77.71
69622;BME280;56841;55.964;37.674;2023-02-20T04:09:53;97544.91;;;-6.04;76.77
69622;BME280;56841;55.964;37.674;2023-02-20T04:12:26;97548.25;;;-5.92;76.67
69622;BME280;56841;55.964;37.674;2023-02-20T04:14:55;97541.66;;;-5.94;76.27
69622;BME280;56841;55.964;37.674;2023-02-20T04:17:33;97544.53;;;-5.88;76.64
69622;BME280;56841;55.964;37.674;2023-02-20T04:20:01;97543.22;;;-5.71;75.31
69622;BME280;56841;55.964;37.674;2023-02-20T04:22:33;97537.06;;;-5.91;75.35
69622;BME280;56841;55.964;37.674;2023-02-20T04:25:36;97541.06;;;-5.98;75.97
69622;BME280;56841;55.964;37.674;2023-02-20T04:28:05;97552.94;;;-5.86;75.98
69622;BME280;56841;55.964;37.674;2023-02-20T04:30:40;97554.72;;;-5.98;75.56
69622;BME280;56841;55.964;37.674;2023-02-20T04:33:10;97559.00;;;-6.09;75.89
69622;BME280;56841;55.964;37.674;2023-02-20T04:35:36;97555.31;;;-6.40;77.09
69622;BME280;56841;55.964;37.674;2023-02-20T04:38:02;97562.56;;;-6.34;77.18
69622;BME280;56841;55.964;37.674;2023-02-20T04:40:28;97562.63;;;-6.12;76.52
69622;BME280;56841;55.964;37.674;2023-02-20T04:42:53;97563.09;;;-6.07;76.00
69622;BME280;56841;55.964;37.674;2023-02-20T04:45:19;97563.69;;;-6.14;76.43
69622;BME280;56841;55.964;37.674;2023-02-20T04:47:45;97564.59;;;-6.15;77.16
69622;BME280;56841;55.964;37.674;2023-02-20T04:50:22;97561.22;;;-6.16;75.98
69622;BME280;56841;55.964;37.674;2023-02-20T04:52:49;97552.09;;;-6.20;76.17
69622;BME280;56841;55.964;37.674;2023-02-20T04:55:15;97557.47;;;-6.23;76.19
69622;BME280;56841;55.964;37.674;2023-02-20T04:57:41;97556.63;;;-6.24;76.60
69622;BME280;56841;55.964;37.674;2023-02-20T05:00:08;97551.75;;;-6.15;76.04
69622;BME280;56841;55.964;37.674;2023-02-20T05:02:37;97553.41;;;-6.14;76.26
69622;BME280;56841;55.964;37.674;2023-02-20T05:05:04;97555.97;;;-6.14;75.91
69622;BME280;56841;55.964;37.674;2023-02-20T05:07:32;97559.72;;;-6.07;75.79
69622;BME280;56841;55.964;37.674;2023-02-20T05:09:59;97565.59;;;-5.94;75.18
69622;BME280;56841;55.964;37.674;2023-02-20T05:12:28;97577.63;;;-5.94;75.51
69622;BME280;56841;55.964;37.674;2023-02-20T05:14:54;97572.94;;;-6.01;75.12
69622;BME280;56841;55.964;37.674;2023-02-20T05:17:20;97569.78;;;-6.04;75.36
69622;BME280;56841;55.964;37.674;2023-02-20T05:19:46;97577.56;;;-6.17;75.48
69622;BME280;56841;55.964;37.674;2023-02-20T05:22:12;97585.63;;;-6.22;75.35
69622;BME280;56841;55.964;37.674;2023-02-20T05:24:49;97583.28;;;-6.25;75.60
69622;BME280;56841;55.964;37.674;2023-02-20T05:27:17;97573.47;;;-6.20;75.99
69622;BME280;56841;55.964;37.674;2023-02-20T05:29:54;97576.16;;;-6.21;75.17
69622;BME280;56841;55.964;37.674;2023-02-20T05:32:22;97584.22;;;-6.14;74.85
69622;BME280;56841;55.964;37.674;2023-02-20T05:34:49;97587.19;;;-5.97;74.96
69622;BME280;56841;55.964;37.674;2023-02-20T05:37:15;97583.19;;;-5.89;74.49
69622;BME280;56841;55.964;37.674;2023-02-20T05:39:42;97592.44;;;-5.98;74.69
69622;BME280;56841;55.964;37.674;2023-02-20T05:42:08;97585.75;;;-5.78;74.38
69622;BME280;56841;55.964;37.674;2023-02-20T05:44:34;97578.53;;;-5.62;73.99
69622;BME280;56841;55.964;37.674;2023-02-20T05:47:00;97576.91;;;-5.63;73.48
69622;BME280;56841;55.964;37.674;2023-02-20T05:49:26;97593.84;;;-5.83;73.78
69622;BME280;56841;55.964;37.674;2023-02-20T05:51:55;97581.13;;;-5.73;73.42
69622;BME280;56841;55.964;37.674;2023-02-20T05:54:21;97585.91;;;-5.57;73.22
69622;BME280;56841;55.964;37.674;2023-02-20T05:56:47;97582.28;;;-5.66;72.92
69622;BME280;56841;55.964;37.674;2023-02-20T05:59:17;97587.69;;;-5.46;72.79
69622;BME280;56841;55.964;37.674;2023-02-20T06:01:43;97587.66;;;-5.35;71.97
69622;BME280;56841;55.964;37.674;2023-02-20T06:04:09;97589.88;;;-5.31;71.82
69622;BME280;56841;55.964;37.674;2023-02-20T06:06:40;97591.88;;;-5.45;72.41
69622;BME280;56841;55.964;37.674;2023-02-20T06:09:08;97595.72;;;-5.51;71.99
69622;BME280;56841;55.964;37.674;2023-02-20T06:11:39;97592.91;;;-5.37;71.53
69622;BME280;56841;55.964;37.674;2023-02-20T06:14:06;97592.56;;;-5.32;71.35
69622;BME280;56841;55.964;37.674;2023-02-20T06:16:34;97600.41;;;-5.34;70.87
69622;BME280;56841;55.964;37.674;2023-02-20T06:19:00;97602.63;;;-5.18;70.84
69622;BME280;56841;55.964;37.674;2023-02-20T06:21:27;97601.31;;;-5.24;71.18
69622;BME280;56841;55.964;37.674;2023-02-20T06:23:53;97598.75;;;-5.01;70.89
69622;BME280;56841;55.964;37.674;2023-02-20T06:26:22;97604.78;;;-4.80;69.77
69622;BME280;56841;55.964;37.674;2023-02-20T06:28:48;97612.47;;;-4.68;69.44
69622;BME280;56841;55.964;37.674;2023-02-20T06:31:20;97613.88;;;-4.76;68.87
69622;BME280;56841;55.964;37.674;2023-02-20T06:33:47;97612.50;;;-4.80;69.37
69622;BME280;56841;55.964;37.674;2023-02-20T06:36:25;97607.69;;;-4.73;68.49
69622;BME280;56841;55.964;37.674;2023-02-20T06:38:51;97616.69;;;-4.67;68.66
69622;BME280;56841;55.964;37.674;2023-02-20T06:41:17;97616.28;;;-4.40;67.60
69622;BME280;56841;55.964;37.674;2023-02-20T06:43:43;97609.28;;;-4.29;67.49
69622;BME280;56841;55.964;37.674;2023-02-20T06:46:09;97612.03;;;-4.41;67.91
69622;BME280;56841;55.964;37.674;2023-02-20T06:48:43;97626.69;;;-4.42;67.30
69622;BME280;56841;55.964;37.674;2023-02-20T06:51:08;97620.47;;;-4.39;67.12
69622;BME280;56841;55.964;37.674;2023-02-20T06:53:34;97614.22;;;-4.25;66.89
69622;BME280;56841;55.964;37.674;2023-02-20T06:56:07;97618.28;;;-4.44;66.90
69622;BME280;56841;55.964;37.674;2023-02-20T06:58:34;97618.31;;;-4.34;67.76
69622;BME280;56841;55.964;37.674;2023-02-20T07:01:00;97622.13;;;-4.17;66.93
69622;BME280;56841;55.964;37.674;2023-02-20T07:03:26;97619.59;;;-4.29;66.49
69622;BME280;56841;55.964;37.674;2023-02-20T07:05:51;97626.03;;;-4.23;65.29
69622;BME280;56841;55.964;37.674;2023-02-20T07:08:17;97629.34;;;-4.32;65.89
69622;BME280;56841;55.964;37.674;2023-02-20T07:10:42;97630.28;;;-4.33;66.49
69622;BME280;56841;55.964;37.674;2023-02-20T07:13:08;97630.47;;;-3.93;65.73
69622;BME280;56841;55.964;37.674;2023-02-20T07:15:34;97624.75;;;-3.96;65.23
69622;BME280;56841;55.964;37.674;2023-02-20T07:18:00;97631.06;;;-4.21;65.12
69622;BME280;56841;55.964;37.674;2023-02-20T07:20:25;97628.31;;;-3.88;65.22
69622;BME280;56841;55.964;37.674;2023-02-20T07:22:51;97630.50;;;-4.04;64.51
69622;BME280;56841;55.964;37.674;2023-02-20T07:25:19;97629.97;;;-4.40;65.80
69622;BME280;56841;55.964;37.674;2023-02-20T07:27:45;97632.88;;;-4.33;64.83
69622;BME280;56841;55.964;37.674;2023-02-20T07:30:11;97640.16;;;-4.17;65.31
69622;BME280;56841;55.964;37.674;2023-02-20T07:32:37;97632.94;;;-4.23;64.98
69622;BME280;56841;55.964;37.674;2023-02-20T07:35:03;97636.00;;;-4.30;65.18
69622;BME280;56841;55.964;37.674;2023-02-20T07:37:29;97636.19;;;-4.10;65.35
69622;BME280;56841;55.964;37.674;2023-02-20T07:39:55;97637.06;;;-4.00;65.29
69622;BME280;56841;55.964;37.674;2023-02-20T07:42:21;97638.69;;;-3.57;63.91
69622;BME280;56841;55.964;37.674;2023-02-20T07:44:57;97642.28;;;-3.48;63.73
69622;BME280;56841;55.964;37.674;2023-02-20T07:47:22;97635.88;;;-3.75;63.72
69622;BME280;56841;55.964;37.674;2023-02-20T07:49:48;97633.97;;;-3.52;62.96
69622;BME280;56841;55.964;37.674;2023-02-20T07:52:14;97641.34;;;-3.89;64.24
69622;BME280;56841;55.964;37.674;2023-02-20T07:54:39;97641.13;;;-3.76;64.43
69622;BME280;56841;55.964;37.674;2023-02-20T07:57:05;97643.34;;;-3.51;62.47
69622;BME280;56841;55.964;37.674;2023-02-20T07:59:31;97637.78;;;-3.16;62.78
69622;BME280;56841;55.964;37.674;2023-02-20T08:01:56;97650.34;;;-3.32;63.06
69622;BME280;56841;55.964;37.674;2023-02-20T08:04:22;97638.19;;;-3.51;63.99
69622;BME280;56841;55.964;37.674;2023-02-20T08:06:48;97646.31;;;-3.55;63.60
69622;BME280;56841;55.964;37.674;2023-02-20T08:09:13;97647.00;;;-3.53;64.05
69622;BME280;56841;55.964;37.674;2023-02-20T08:11:39;97644.78;;;-3.37;63.77
69622;BME280;56841;55.964;37.674;2023-02-20T08:14:05;97650.94;;;-3.49;63.33
69622;BME280;56841;55.964;37.674;2023-02-20T08:16:31;97656.09;;;-3.49;63.26
69622;BME280;56841;55.964;37.674;2023-02-20T08:18:59;97658.25;;;-3.96;64.20
69622;BME280;56841;55.964;37.674;2023-02-20T08:21:24;97658.44;;;-3.67;64.57
69622;BME280;56841;55.964;37.674;2023-02-20T08:23:50;97654.72;;;-3.53;64.45
69622;BME280;56841;55.964;37.674;2023-02-20T08:26:17;97652.97;;;-3.74;63.65
69622;BME280;56841;55.964;37.674;2023-02-20T08:28:46;97657.47;;;-3.76;65.09
69622;BME280;56841;55.964;37.674;2023-02-20T08:31:12;97649.66;;;-3.86;64.75
69622;BME280;56841;55.964;37.674;2023-02-20T08:33:37;97657.28;;;-4.16;64.94
69622;BME280;56841;55.964;37.674;2023-02-20T08:36:03;97652.53;;;-4.00;64.58
69622;BME280;56841;55.964;37.674;2023-02-20T08:38:33;97653.34;;;-3.99;64.61
69622;BME280;56841;55.964;37.674;2023-02-20T08:41:02;97654.03;;;-3.76;64.41
69622;BME280;56841;55.964;37.674;2023-02-20T08:43:28;97657.25;;;-3.63;63.65
69622;BME280;56841;55.964;37.674;2023-02-20T08:45:54;97667.44;;;-3.62;63.67
69622;BME280;56841;55.964;37.674;2023-02-20T08:48:20;97671.47;;;-3.69;63.30
69622;BME280;56841;55.964;37.674;2023-02-20T08:50:46;97667.00;;;-3.67;63.02
69622;BME280;56841;55.964;37.674;2023-02-20T08:53:12;97666.63;;;-3.62;62.69
69622;BME280;56841;55.964;37.674;2023-02-20T08:55:38;97678.19;;;-3.77;62.62
69622;BME280;56841;55.964;37.674;2023-02-20T08:58:04;97674.25;;;-3.61;62.87
69622;BME280;56841;55.964;37.674;2023-02-20T09:00:30;97673.03;;;-3.57;62.70
69622;BME280;56841;55.964;37.674;2023-02-20T09:02:56;97673.59;;;-3.53;62.43
69622;BME280;56841;55.964;37.674;2023-02-20T09:05:21;97677.22;;;-3.65;62.47
69622;BME280;56841;55.964;37.674;2023-02-20T09:07:47;97683.97;;;-3.43;62.22
69622;BME280;56841;55.964;37.674;2023-02-20T09:10:13;97677.56;;;-3.49;61.85
69622;BME280;56841;55.964;37.674;2023-02-20T09:12:40;97675.25;;;-3.52;62.16
69622;BME280;56841;55.964;37.674;2023-02-20T09:15:08;97675.03;;;-3.39;61.67
69622;BME280;56841;55.964;37.674;2023-02-20T09:17:34;97662.97;;;-3.60;62.08
69622;BME280;56841;55.964;37.674;2023-02-20T09:20:00;97659.97;;;-3.65;62.25
69622;BME280;56841;55.964;37.674;2023-02-20T09:22:26;97658.75;;;-3.40;62.01
69622;BME280;56841;55.964;37.674;2023-02-20T09:24:52;97663.53;;;-3.56;61.23
69622;BME280;56841;55.964;37.674;2023-02-20T09:27:19;97669.09;;;-3.82;62.48
69622;BME280;56841;55.964;37.674;2023-02-20T09:29:46;97674.81;;;-3.78;62.79
69622;BME280;56841;55.964;37.674;2023-02-20T09:32:12;97681.53;;;-3.45;61.80
69622;BME280;56841;55.964;37.674;2023-02-20T09:34:39;97686.84;;;-3.16;60.84
69622;BME280;56841;55.964;37.674;2023-02-20T09:37:04;97684.41;;;-3.17;60.70
69622;BME280;56841;55.964;37.674;2023-02-20T09:39:30;97686.91;;;-3.06;60.06
69622;BME280;56841;55.964;37.674;2023-02-20T09:42:22;97688.00;;;-2.99;60.97
69622;BME280;56841;55.964;37.674;2023-02-20T09:45:10;97686.84;;;-2.85;60.17
69622;BME280;56841;55.964;37.674;2023-02-20T09:51:21;97672.53;;;-2.99;60.79
69622;BME280;56841;55.964;37.674;2023-02-20T09:53:34;97664.66;;;-3.28;61.00
69622;BME280;56841;55.964;37.674;2023-02-20T09:56:05;97665.78;;;-2.90;60.53
69622;BME280;56841;55.964;37.674;2023-02-20T09:58:45;97665.09;;;-2.82;59.83
69622;BME280;56841;55.964;37.674;2023-02-20T10:01:15;97666.00;;;-2.53;58.89
69622;BME280;56841;55.964;37.674;2023-02-20T10:04:09;97665.72;;;-2.50;59.39
69622;BME280;56841;55.964;37.674;2023-02-20T10:06:36;97657.31;;;-2.42;58.56
69622;BME280;56841;55.964;37.674;2023-02-20T10:09:03;97664.75;;;-2.58;59.54
69622;BME280;56841;55.964;37.674;2023-02-20T10:12:34;97667.25;;;-2.88;59.85
69622;BME280;56841;55.964;37.674;2023-02-20T10:14:45;97674.50;;;-3.12;59.97
69622;BME280;56841;55.964;37.674;2023-02-20T10:17:25;97673.97;;;-3.37;59.74
69622;BME280;56841;55.964;37.674;2023-02-20T10:25:41;97663.91;;;-3.09;59.89
69622;BME280;56841;55.964;37.674;2023-02-20T10:28:10;97664.63;;;-2.47;58.35
69622;BME280;56841;55.964;37.674;2023-02-20T10:36:11;97667.09;;;-2.46;57.18
69622;BME280;56841;55.964;37.674;2023-02-20T10:38:47;97658.13;;;-2.92;58.15
69622;BME280;56841;55.964;37.674;2023-02-20T10:41:32;97651.34;;;-2.93;57.98
69622;BME280;56841;55.964;37.674;2023-02-20T10:44:00;97657.94;;;-2.69;57.13
69622;BME280;56841;55.964;37.674;2023-02-20T10:46:39;97648.19;;;-2.36;56.10
69622;BME280;56841;55.964;37.674;2023-02-20T10:49:13;97647.34;;;-2.66;56.29
69622;BME280;56841;55.964;37.674;2023-02-20T10:51:45;97653.91;;;-2.43;58.04
69622;BME280;56841;55.964;37.674;2023-02-20T10:54:24;97656.22;;;-2.30;56.94
69622;BME280;56841;55.964;37.674;2023-02-20T11:01:54;97658.63;;;-1.51;55.56
69622;BME280;56841;55.964;37.674;2023-02-20T11:04:36;97655.91;;;-1.39;55.06
69622;BME280;56841;55.964;37.674;2023-02-20T11:07:12;97656.09;;;-1.60;55.42
69622;BME280;56841;55.964;37.674;2023-02-20T11:09:41;97657.88;;;-1.80;55.89
69622;BME280;56841;55.964;37.674;2023-02-20T11:12:39;97650.22;;;-1.72;55.89
69622;BME280;56841;55.964;37.674;2023-02-20T11:15:09;97655.41;;;-1.72;55.19
69622;BME280;56841;55.964;37.674;2023-02-20T11:17:38;97657.56;;;-1.68;55.32
69622;BME280;56841;55.964;37.674;2023-02-20T11:20:05;97661.53;;;-1.73;55.65
69622;BME280;56841;55.964;37.674;2023-02-20T11:22:51;97658.97;;;-1.83;55.29
69622;BME280;56841;55.964;37.674;2023-02-20T11:28:05;97651.34;;;-1.84;55.23
69622;BME280;56841;55.964;37.674;2023-02-20T11:30:35;97652.16;;;-1.74;55.09
69622;BME280;56841;55.964;37.674;2023-02-20T11:33:21;97655.94;;;-1.78;54.87
69622;BME280;56841;55.964;37.674;2023-02-20T11:35:49;97645.28;;;-1.46;54.37
69622;BME280;56841;55.964;37.674;2023-02-20T11:38:18;97651.41;;;-1.47;55.11
69622;BME280;56841;55.964;37.674;2023-02-20T11:43:31;97652.03;;;-1.16;53.91
69622;BME280;56841;55.964;37.674;2023-02-20T11:46:21;97661.13;;;-1.69;54.20
69622;BME280;56841;55.964;37.674;2023-02-20T11:51:40;97663.47;;;-2.14;56.14
69622;BME280;56841;55.964;37.674;2023-02-20T11:54:13;97663.59;;;-2.25;57.32
69622;BME280;56841;55.964;37.674;2023-02-20T11:57:01;97667.41;;;-2.10;57.42
69622;BME280;56841;55.964;37.674;2023-02-20T11:59:34;97667.38;;;-2.29;57.59
69622;BME280;56841;55.964;37.674;2023-02-20T12:05:01;97667.97;;;-1.87;55.16
69622;BME280;56841;55.964;37.674;2023-02-20T12:07:33;97666.03;;;-2.14;55.59
69622;BME280;56841;55.964;37.674;2023-02-20T12:10:12;97665.53;;;-1.98;55.85
69622;BME280;56841;55.964;37.674;2023-02-20T12:12:40;97672.03;;;-1.94;55.54
69622;BME280;56841;55.964;37.674;2023-02-20T12:15:16;97664.81;;;-2.39;57.21
69622;BME280;56841;55.964;37.674;2023-02-20T12:20:26;97669.25;;;-2.51;57.55
69622;BME280;56841;55.964;37.674;2023-02-20T12:47:32;97672.66;;;-3.00;59.26
69622;BME280;56841;55.964;37.674;2023-02-20T12:50:23;97668.34;;;-3.21;59.98
69622;BME280;56841;55.964;37.674;2023-02-20T12:53:12;97674.31;;;-3.51;61.56
69622;BME280;56841;55.964;37.674;2023-02-20T12:56:12;97675.44;;;-3.44;61.58
69622;BME280;56841;55.964;37.674;2023-02-20T13:01:20;97675.50;;;-3.76;62.24
69622;BME280;56841;55.964;37.674;2023-02-20T13:06:26;97670.19;;;-3.33;62.71
69622;BME280;56841;55.964;37.674;2023-02-20T13:09:10;97670.44;;;-3.36;62.11
69622;BME280;56841;55.964;37.674;2023-02-20T13:11:42;97665.63;;;-3.50;62.62
69622;BME280;56841;55.964;37.674;2023-02-20T13:15:01;97666.94;;;-3.76;62.96
69622;BME280;56841;55.964;37.674;2023-02-20T13:17:43;97675.53;;;-3.87;63.39
69622;BME280;56841;55.964;37.674;2023-02-20T13:20:25;97668.59;;;-4.08;64.18
69622;BME280;56841;55.964;37.674;2023-02-20T13:23:03;97674.72;;;-4.09;64.39
69622;BME280;56841;55.964;37.674;2023-02-20T13:25:34;97667.63;;;-3.95;64.54
69622;BME280;56841;55.964;37.674;2023-02-20T13:30:39;97674.94;;;-4.12;65.49
69622;BME280;56841;55.964;37.674;2023-02-20T13:33:27;97672.00;;;-4.07;64.49
69622;BME280;56841;55.964;37.674;2023-02-20T13:35:55;97670.59;;;-4.11;64.82
69622;BME280;56841;55.964;37.674;2023-02-20T13:38:23;97663.34;;;-4.06;65.24
69622;BME280;56841;55.964;37.674;2023-02-20T13:53:43;97677.75;;;-4.58;66.78
69622;BME280;56841;55.964;37.674;2023-02-20T13:56:23;97679.09;;;-4.64;66.69
69622;BME280;56841;55.964;37.674;2023-02-20T13:58:50;97678.03;;;-4.72;67.50
69622;BME280;56841;55.964;37.674;2023-02-20T14:01:18;97666.34;;;-4.88;67.83
69622;BME280;56841;55.964;37.674;2023-02-20T14:03:44;97678.06;;;-4.95;67.92
69622;BME280;56841;55.964;37.674;2023-02-20T14:06:12;97676.66;;;-5.10;68.45
69622;BME280;56841;55.964;37.674;2023-02-20T14:08:40;97676.06;;;-5.14;68.32
69622;BME280;56841;55.964;37.674;2023-02-20T14:13:42;97681.13;;;-5.12;68.64
69622;BME280;56841;55.964;37.674;2023-02-20T14:16:42;97688.13;;;-5.03;67.82
69622;BME280;56841;55.964;37.674;2023-02-20T14:19:23;97684.03;;;-5.06;67.91
69622;BME280;56841;55.964;37.674;2023-02-20T14:21:51;97693.13;;;-5.13;68.19
69622;BME280;56841;55.964;37.674;2023-02-20T14:26:44;97696.97;;;-5.41;69.68
69622;BME280;56841;55.964;37.674;2023-02-20T14:29:20;97691.75;;;-5.17;69.60
69622;BME280;56841;55.964;37.674;2023-02-20T14:31:49;97700.41;;;-5.18;69.85
69622;BME280;56841;55.964;37.674;2023-02-20T14:37:35;97692.91;;;-5.10;69.84
69622;BME280;56841;55.964;37.674;2023-02-20T14:42:44;97685.53;;;-5.03;69.36
69622;BME280;56841;55.964;37.674;2023-02-20T14:45:24;97692.78;;;-4.97;69.19
69622;BME280;56841;55.964;37.674;2023-02-20T14:47:57;97696.44;;;-4.88;68.96
69622;BME280;56841;55.964;37.674;2023-02-20T14:50:24;97697.69;;;-4.83;68.77
69622;BME280;56841;55.964;37.674;2023-02-20T14:53:13;97708.69;;;-5.03;69.01
69622;BME280;56841;55.964;37.674;2023-02-20T14:55:40;97704.72;;;-5.07;69.41
69622;BME280;56841;55.964;37.674;2023-02-20T14:58:09;97713.50;;;-5.21;69.39
69622;BME280;56841;55.964;37.674;2023-02-20T15:00:39;97707.41;;;-5.20;69.53
69622;BME280;56841;55.964;37.674;2023-02-20T15:05:44;97716.91;;;-4.98;68.92
69622;BME280;56841;55.964;37.674;2023-02-20T15:10:47;97711.88;;;-5.11;68.52
69622;BME280;56841;55.964;37.674;2023-02-20T15:13:15;97705.50;;;-5.40;69.34